createdAt,value
2022-10-18T00:02:05.421Z,100141.19
2022-10-18T00:04:32.290Z,100146.38
2022-10-18T00:06:59.402Z,100119.38
2022-10-18T00:09:27.680Z,100136.03
2022-10-18T00:11:55.394Z,100145.97
2022-10-18T00:14:22.295Z,100143.56
2022-10-18T00:16:49.147Z,100145.09
2022-10-18T00:19:16.117Z,100149.94
2022-10-18T00:24:14.863Z,100152.31
2022-10-18T00:26:41.691Z,100158.06
2022-10-18T00:29:12.902Z,100130.59
2022-10-18T00:31:39.763Z,100142.81
2022-10-18T00:34:09.706Z,100156.38
2022-10-18T00:36:36.628Z,100147.97
2022-10-18T00:39:04.803Z,100155.66
2022-10-18T00:41:33.378Z,100147.28
2022-10-18T00:44:07.074Z,100145.94
2022-10-18T00:46:38.350Z,100147.34
2022-10-18T00:49:09.430Z,100143.81
2022-10-18T00:51:47.584Z,100154.22
2022-10-18T00:54:14.529Z,100150.22
2022-10-18T00:56:41.376Z,100152.09
2022-10-18T00:59:08.265Z,100152.44
2022-10-18T01:01:35.208Z,100150.81
2022-10-18T01:04:02.113Z,100147.56
2022-10-18T01:06:28.953Z,100148.78
2022-10-18T01:08:58.768Z,100148.28
2022-10-18T01:11:32.307Z,100150.63
2022-10-18T01:14:02.297Z,100146.56
2022-10-18T01:16:47.036Z,100144.44
2022-10-18T01:19:42.640Z,100142.81
2022-10-18T01:22:11.564Z,100143.13
2022-10-18T01:24:46.107Z,100144.44
2022-10-18T01:27:31.644Z,100139.59
2022-10-18T01:30:04.028Z,100147.56
2022-10-18T01:32:35.005Z,100138.88
2022-10-18T01:35:04.053Z,100115.88
2022-10-18T01:37:31.145Z,100131.78
2022-10-18T01:39:58.386Z,100111.56
2022-10-18T01:42:25.431Z,100124.72
2022-10-18T01:44:52.529Z,100124.72
2022-10-18T01:47:19.524Z,100122.28
2022-10-18T01:49:46.452Z,100113.25
2022-10-18T01:52:14.362Z,100113.59
2022-10-18T01:54:49.072Z,100112.25
2022-10-18T01:57:35.652Z,100123.19
2022-10-18T02:00:05.488Z,100121.34
2022-10-18T02:02:43.143Z,100121.66
2022-10-18T02:05:28.287Z,100123.09
2022-10-18T02:08:32.498Z,100114.00
2022-10-18T02:11:28.337Z,100124.50
2022-10-18T02:14:00.506Z,100111.75
2022-10-18T02:16:35.558Z,100110.13
2022-10-18T02:19:11.028Z,100129.34
2022-10-18T02:21:38.416Z,100101.06
2022-10-18T02:24:05.530Z,100118.53
2022-10-18T02:26:32.336Z,100111.09
2022-10-18T02:28:59.234Z,100091.84
2022-10-18T02:31:49.706Z,100118.25
2022-10-18T02:34:39.607Z,100126.53
2022-10-18T02:37:06.422Z,100119.00
2022-10-18T02:39:38.300Z,100108.84
2022-10-18T02:42:08.978Z,100135.63
2022-10-18T02:44:35.942Z,100131.16
2022-10-18T02:47:02.850Z,100129.78
2022-10-18T02:49:29.875Z,100100.72
2022-10-18T02:51:56.779Z,100128.03
2022-10-18T02:54:23.847Z,100123.72
2022-10-18T02:56:50.794Z,100128.59
2022-10-18T02:59:17.643Z,100131.56
2022-10-18T03:01:44.503Z,100129.97
2022-10-18T03:04:11.345Z,100128.69
2022-10-18T03:06:38.208Z,100119.84
2022-10-18T03:09:05.360Z,100119.84
2022-10-18T03:11:32.454Z,100124.19
2022-10-18T03:13:59.299Z,100123.06
2022-10-18T03:16:26.139Z,100116.47
2022-10-18T03:18:52.997Z,100116.94
2022-10-18T03:21:19.806Z,100108.56
2022-10-18T03:23:46.637Z,100108.06
2022-10-18T03:26:13.672Z,100107.75
2022-10-18T03:28:40.643Z,100114.06
2022-10-18T03:31:07.461Z,100107.13
2022-10-18T03:33:34.361Z,100109.22
2022-10-18T03:36:01.250Z,100116.13
2022-10-18T03:38:28.210Z,100117.88
2022-10-18T03:40:55.133Z,100111.91
2022-10-18T03:43:22.159Z,100111.56
2022-10-18T03:45:48.984Z,100112.34
2022-10-18T03:48:15.914Z,100115.59
2022-10-18T03:50:43.447Z,100092.03
2022-10-18T03:53:10.529Z,100110.22
2022-10-18T03:55:37.767Z,100106.53
2022-10-18T03:58:05.044Z,100102.00
2022-10-18T04:00:32.211Z,100100.06
2022-10-18T04:02:59.164Z,100097.63
2022-10-18T04:05:28.284Z,100105.00
2022-10-18T04:07:55.278Z,100101.09
2022-10-18T04:10:22.370Z,100088.97
2022-10-18T04:12:49.456Z,100104.25
2022-10-18T04:15:16.623Z,100102.81
2022-10-18T04:17:43.599Z,100106.88
2022-10-18T04:20:11.041Z,100089.59
2022-10-18T04:22:38.073Z,100106.88
2022-10-18T04:25:05.589Z,100110.56
2022-10-18T04:27:32.797Z,100115.56
2022-10-18T04:30:00.037Z,100112.28
2022-10-18T04:32:29.142Z,100115.53
2022-10-18T04:34:56.109Z,100117.31
2022-10-18T04:37:23.306Z,100113.94
2022-10-18T04:39:53.454Z,100118.63
2022-10-18T04:42:21.682Z,100122.00
2022-10-18T04:44:48.969Z,100116.31
2022-10-18T04:47:16.481Z,100114.50
2022-10-18T04:49:43.440Z,100107.88
2022-10-18T04:52:10.588Z,100100.28
2022-10-18T04:54:37.686Z,100112.78
2022-10-18T04:57:04.821Z,100101.78
2022-10-18T04:59:31.840Z,100107.41
2022-10-18T05:01:59.295Z,100111.56
2022-10-18T05:04:26.429Z,100107.34
2022-10-18T05:06:53.370Z,100107.00
2022-10-18T05:09:22.470Z,100101.84
2022-10-18T05:11:49.440Z,100104.25
2022-10-18T05:14:16.647Z,100097.63
2022-10-18T05:16:43.641Z,100100.16
2022-10-18T05:19:10.686Z,100075.81
2022-10-18T05:21:37.587Z,100098.50
2022-10-18T05:24:04.668Z,100100.47
2022-10-18T05:26:31.563Z,100088.50
2022-10-18T05:28:58.710Z,100096.44
2022-10-18T05:31:25.900Z,100085.44
2022-10-18T05:33:52.846Z,100087.63
2022-10-18T05:36:19.891Z,100093.63
2022-10-18T05:38:48.437Z,100092.47
2022-10-18T05:41:15.447Z,100097.53
2022-10-18T05:43:42.469Z,100107.56
2022-10-18T05:46:14.526Z,100060.72
2022-10-18T05:48:49.079Z,100112.19
2022-10-18T05:51:16.145Z,100111.09
2022-10-18T05:53:43.085Z,100118.53
2022-10-18T05:56:12.073Z,100114.84
2022-10-18T05:58:39.683Z,100112.78
2022-10-18T06:01:06.919Z,100116.50
2022-10-18T06:03:34.141Z,100102.94
2022-10-18T06:06:02.041Z,100116.91
2022-10-18T06:08:29.431Z,100107.69
2022-10-18T06:10:56.596Z,100096.09
2022-10-18T06:13:23.743Z,100097.63
2022-10-18T06:15:50.824Z,100116.66
2022-10-18T06:18:17.763Z,100109.56
2022-10-18T06:20:44.767Z,100109.91
2022-10-18T06:23:11.841Z,100107.47
2022-10-18T06:25:38.794Z,100105.69
2022-10-18T06:28:07.952Z,100103.59
2022-10-18T06:30:37.311Z,100103.00
2022-10-18T06:33:04.268Z,100099.44
2022-10-18T06:35:31.250Z,100107.38
2022-10-18T06:37:58.116Z,100113.53
2022-10-18T06:40:25.105Z,100111.44
2022-10-18T06:43:00.119Z,100112.09
2022-10-18T06:45:27.290Z,100111.09
2022-10-18T06:47:54.215Z,100093.22
2022-10-18T06:50:21.276Z,100111.63
2022-10-18T06:52:49.576Z,100115.16
2022-10-18T06:55:16.592Z,100115.50
2022-10-18T06:57:43.476Z,100109.19
2022-10-18T07:00:11.070Z,100106.75
2022-10-18T07:02:41.299Z,100116.63
2022-10-18T07:05:09.207Z,100108.72
2022-10-18T07:07:36.331Z,100099.66
2022-10-18T07:10:04.073Z,100084.00
2022-10-18T07:12:31.531Z,100109.34
2022-10-18T07:14:58.468Z,100105.66
2022-10-18T07:17:26.158Z,100099.84
2022-10-18T07:19:53.068Z,100101.63
2022-10-18T07:22:20.075Z,100102.75
2022-10-18T07:24:47.003Z,100082.56
2022-10-18T07:27:13.938Z,100101.94
2022-10-18T07:29:41.103Z,100101.13
2022-10-18T07:32:08.272Z,100100.31
2022-10-18T07:34:35.261Z,100097.09
2022-10-18T07:37:02.343Z,100100.47
2022-10-18T07:39:29.276Z,100097.56
2022-10-18T07:41:56.205Z,100094.84
2022-10-18T07:44:23.218Z,100087.75
2022-10-18T07:46:50.155Z,100090.00
2022-10-18T07:49:17.183Z,100083.38
2022-10-18T07:51:44.082Z,100089.19
2022-10-18T07:54:11.197Z,100092.75
2022-10-18T07:56:38.204Z,100071.78
2022-10-18T07:59:05.201Z,100091.94
2022-10-18T08:01:32.250Z,100087.25
2022-10-18T08:04:06.070Z,100080.97
2022-10-18T08:06:34.214Z,100084.94
2022-10-18T08:09:01.202Z,100093.41
2022-10-18T08:11:28.184Z,100081.75
2022-10-18T08:13:55.234Z,100083.22
2022-10-18T08:16:23.754Z,100080.31
2022-10-18T08:18:50.827Z,100071.88
2022-10-18T08:21:18.468Z,100086.41
2022-10-18T08:23:45.439Z,100080.75
2022-10-18T08:26:17.626Z,100075.75
2022-10-18T08:28:53.578Z,100069.91
2022-10-18T08:31:25.679Z,100072.50
2022-10-18T08:33:54.776Z,100067.47
2022-10-18T08:36:21.664Z,100066.47
2022-10-18T08:38:49.405Z,100068.91
2022-10-18T08:41:19.014Z,100066.94
2022-10-18T08:44:07.673Z,100065.97
2022-10-18T08:46:35.634Z,100062.06
2022-10-18T08:49:04.558Z,100058.50
2022-10-18T08:51:34.558Z,100055.41
2022-10-18T08:54:04.670Z,100054.75
2022-10-18T08:56:31.618Z,100031.22
2022-10-18T08:58:58.548Z,100042.34
2022-10-18T09:01:59.722Z,100056.78
2022-10-18T09:04:48.729Z,100055.00
2022-10-18T09:07:18.465Z,100050.47
2022-10-18T09:10:01.920Z,100060.28
2022-10-18T09:13:06.348Z,100057.47
2022-10-18T09:15:59.960Z,100049.06
2022-10-18T09:18:55.501Z,100044.97
2022-10-18T09:21:44.508Z,100046.72
2022-10-18T09:24:18.649Z,100043.31
2022-10-18T09:26:47.439Z,100042.63
2022-10-18T09:29:32.803Z,100032.69
2022-10-18T09:32:25.608Z,100032.69
2022-10-18T09:34:57.777Z,100026.94
2022-10-18T09:37:24.998Z,100029.31
2022-10-18T09:39:52.292Z,100019.16
2022-10-18T09:42:26.731Z,100019.41
2022-10-18T09:45:00.247Z,100024.22
2022-10-18T09:47:32.573Z,100027.13
2022-10-18T09:50:01.802Z,100021.53
2022-10-18T09:52:34.765Z,100003.63
2022-10-18T09:55:05.554Z,100019.97
2022-10-18T09:57:35.953Z,100001.03
2022-10-18T10:00:04.690Z,100017.72
2022-10-18T10:02:32.066Z,100014.88
2022-10-18T10:04:59.246Z,100012.03
2022-10-18T10:07:35.131Z,100015.38
2022-10-18T10:10:08.619Z,100007.22
2022-10-18T10:12:37.598Z,100001.84
2022-10-18T10:15:20.427Z,100002.22
2022-10-18T10:17:57.912Z,99999.22
2022-10-18T10:20:29.832Z,99990.28
2022-10-18T10:22:56.704Z,99995.56
2022-10-18T10:25:29.089Z,99983.63
2022-10-18T10:27:56.122Z,99983.03
2022-10-18T10:30:24.290Z,99982.13
2022-10-18T10:32:51.785Z,99973.63
2022-10-18T10:38:24.585Z,99960.94
2022-10-18T10:40:51.616Z,99960.47
2022-10-18T10:43:40.273Z,99952.84
2022-10-18T10:46:10.196Z,99941.16
2022-10-18T10:48:50.045Z,99949.19
2022-10-18T10:51:27.523Z,99945.03
2022-10-18T10:54:02.450Z,99922.03
2022-10-18T10:56:33.748Z,99905.47
2022-10-18T10:59:07.541Z,99938.59
2022-10-18T11:01:34.744Z,99920.44
2022-10-18T11:04:04.375Z,99921.50
2022-10-18T11:06:42.483Z,99922.03
2022-10-18T11:09:16.503Z,99918.41
2022-10-18T11:11:53.224Z,99917.34
2022-10-18T11:14:28.213Z,99911.94
2022-10-18T11:17:22.208Z,99917.66
2022-10-18T11:20:07.573Z,99911.06
2022-10-18T11:22:40.028Z,99906.16
2022-10-18T11:25:09.080Z,99881.75
2022-10-18T11:27:42.205Z,99895.47
2022-10-18T11:30:24.328Z,99893.31
2022-10-18T11:33:00.427Z,99891.97
2022-10-18T11:36:02.832Z,99866.69
2022-10-18T11:38:52.128Z,99898.56
2022-10-18T11:41:39.969Z,99891.59
2022-10-18T11:44:22.161Z,99895.66
2022-10-18T11:47:11.952Z,99877.38
2022-10-18T11:49:57.262Z,99880.22
2022-10-18T11:52:36.085Z,99878.34
2022-10-18T11:55:21.462Z,99872.75
2022-10-18T11:57:55.041Z,99867.22
2022-10-18T12:00:46.009Z,99865.34
2022-10-18T12:03:18.683Z,99868.56
2022-10-18T12:05:46.567Z,99846.25
2022-10-18T12:08:14.216Z,99869.16
2022-10-18T12:10:53.207Z,99850.34
2022-10-18T12:13:35.237Z,99814.25
2022-10-18T12:16:02.921Z,99827.56
2022-10-18T12:18:30.032Z,99810.81
2022-10-18T12:20:57.351Z,99829.38
2022-10-18T12:23:30.329Z,99823.50
2022-10-18T12:26:01.578Z,99816.03
2022-10-18T12:28:56.183Z,99812.25
2022-10-18T12:31:39.102Z,99809.56
2022-10-18T12:34:21.366Z,99797.41
2022-10-18T12:36:51.202Z,99785.22
2022-10-18T12:39:37.598Z,99791.25
2022-10-18T12:42:25.349Z,99794.50
2022-10-18T12:45:25.853Z,99785.94
2022-10-18T12:47:53.044Z,99774.09
2022-10-18T12:50:40.496Z,99745.09
2022-10-18T12:53:10.566Z,99775.44
2022-10-18T12:55:38.974Z,99751.94
2022-10-18T12:58:21.265Z,99768.84
2022-10-18T13:00:48.944Z,99768.91
2022-10-18T13:03:18.423Z,99765.78
2022-10-18T13:05:52.992Z,99760.34
2022-10-18T13:08:27.545Z,99761.22
2022-10-18T13:11:12.503Z,99754.63
2022-10-18T13:13:45.617Z,99748.75
2022-10-18T13:16:21.136Z,99741.22
2022-10-18T13:18:57.208Z,99726.84
2022-10-18T13:21:33.705Z,99744.09
2022-10-18T13:24:46.267Z,99746.13
2022-10-18T13:30:38.769Z,99742.22
2022-10-18T13:33:32.803Z,99729.91
2022-10-18T13:36:04.125Z,99733.00
2022-10-18T13:38:58.682Z,99729.16
2022-10-18T13:41:34.538Z,99728.03
2022-10-18T13:44:28.719Z,99724.09
2022-10-18T13:46:55.509Z,99742.00
2022-10-18T13:49:22.394Z,99748.38
2022-10-18T13:52:20.047Z,99750.81
2022-10-18T13:55:22.314Z,99743.72
2022-10-18T13:58:27.014Z,99740.22
2022-10-18T14:00:56.796Z,99757.63
2022-10-18T14:03:58.099Z,99747.38
2022-10-18T14:06:52.613Z,99749.78
2022-10-18T14:09:26.173Z,99746.97
2022-10-18T14:12:29.424Z,99750.59
2022-10-18T14:15:17.574Z,99747.03
2022-10-18T14:17:46.955Z,99729.00
2022-10-18T14:20:40.086Z,99728.66
2022-10-18T14:23:42.876Z,99753.34
2022-10-18T14:26:17.200Z,99744.66
2022-10-18T14:29:00.610Z,99738.31
2022-10-18T14:31:27.913Z,99722.78
2022-10-18T14:33:58.030Z,99725.56
2022-10-18T14:36:27.347Z,99741.16
2022-10-18T14:38:57.146Z,99737.94
2022-10-18T14:41:25.018Z,99735.19
2022-10-18T14:43:52.963Z,99735.53
2022-10-18T14:46:29.199Z,99714.88
2022-10-18T14:49:00.122Z,99729.63
2022-10-18T14:51:29.588Z,99733.53
2022-10-18T14:53:56.439Z,99715.31
2022-10-18T14:56:30.310Z,99727.19
2022-10-18T14:58:58.459Z,99719.25
2022-10-18T15:01:27.659Z,99727.16
2022-10-18T15:03:58.980Z,99720.06
2022-10-18T15:06:26.018Z,99720.38
2022-10-18T15:08:57.154Z,99714.78
2022-10-18T15:11:24.536Z,99701.09
2022-10-18T15:13:59.423Z,99704.94
2022-10-18T15:16:29.827Z,99706.47
2022-10-18T15:19:22.753Z,99700.91
2022-10-18T15:21:56.035Z,99702.00
2022-10-18T15:24:39.726Z,99691.31
2022-10-18T15:27:22.505Z,99687.31
2022-10-18T15:29:49.567Z,99680.56
2022-10-18T15:32:21.687Z,99687.19
2022-10-18T15:34:48.592Z,99676.81
2022-10-18T15:37:25.417Z,99688.69
2022-10-18T15:40:19.157Z,99682.28
2022-10-18T15:42:46.255Z,99665.00
2022-10-18T15:45:25.042Z,99684.88
2022-10-18T15:48:06.985Z,99681.34
2022-10-18T15:50:37.467Z,99670.63
2022-10-18T15:53:28.267Z,99672.13
2022-10-18T15:56:05.501Z,99676.41
2022-10-18T15:58:41.404Z,99677.53
2022-10-18T16:01:17.941Z,99672.69
2022-10-18T16:03:45.670Z,99670.66
2022-10-18T16:06:15.906Z,99671.78
2022-10-18T16:08:51.902Z,99678.13
2022-10-18T16:11:25.194Z,99661.28
2022-10-18T16:13:55.106Z,99677.56
2022-10-18T16:16:26.349Z,99679.13
2022-10-18T16:18:53.262Z,99674.31
2022-10-18T16:21:31.357Z,99672.25
2022-10-18T16:23:58.568Z,99687.19
2022-10-18T16:26:25.574Z,99689.91
2022-10-18T16:28:52.541Z,99707.63
2022-10-18T16:31:21.999Z,99702.41
2022-10-18T16:33:49.203Z,99695.59
2022-10-18T16:36:20.623Z,99713.72
2022-10-18T16:38:47.957Z,99709.28
2022-10-18T16:41:15.914Z,99696.00
2022-10-18T16:43:44.034Z,99675.59
2022-10-18T16:46:15.480Z,99715.34
2022-10-18T16:48:42.478Z,99713.69
2022-10-18T16:51:09.404Z,99715.19
2022-10-18T16:53:36.294Z,99717.56
2022-10-18T16:56:03.844Z,99673.25
2022-10-18T16:58:31.134Z,99703.41
2022-10-18T17:00:58.703Z,99723.31
2022-10-18T17:03:25.696Z,99721.97
2022-10-18T17:05:53.080Z,99725.47
2022-10-18T17:08:29.001Z,99737.66
2022-10-18T17:10:57.958Z,99721.75
2022-10-18T17:13:25.185Z,99732.00
2022-10-18T17:15:52.239Z,99710.00
2022-10-18T17:18:23.311Z,99728.72
2022-10-18T17:20:50.219Z,99725.91
2022-10-18T17:23:17.203Z,99730.91
2022-10-18T17:25:57.494Z,99733.69
2022-10-18T17:28:31.719Z,99735.59
2022-10-18T17:30:58.675Z,99736.28
2022-10-18T17:33:25.515Z,99743.34
2022-10-18T17:35:52.408Z,99737.72
2022-10-18T17:38:19.228Z,99743.63
2022-10-18T17:40:46.433Z,99736.00
2022-10-18T17:43:13.922Z,99756.53
2022-10-18T17:45:51.179Z,99751.41
2022-10-18T17:48:18.156Z,99732.53
2022-10-18T17:50:44.960Z,99748.03
2022-10-18T17:53:13.049Z,99751.53
2022-10-18T17:55:40.083Z,99745.09
2022-10-18T17:58:06.935Z,99739.50
2022-10-18T18:00:33.875Z,99741.81
2022-10-18T18:03:01.131Z,99742.53
2022-10-18T18:05:31.632Z,99740.84
2022-10-18T18:08:02.864Z,99747.88
2022-10-18T18:10:33.262Z,99721.28
2022-10-18T18:13:00.581Z,99767.38
2022-10-18T18:15:27.468Z,99784.31
2022-10-18T18:17:58.047Z,99796.88
2022-10-18T18:20:26.161Z,99777.97
2022-10-18T18:22:53.051Z,99785.63
2022-10-18T18:25:19.905Z,99800.16
2022-10-18T18:27:46.749Z,99803.63
2022-10-18T18:30:15.302Z,99815.81
2022-10-18T18:32:42.242Z,99800.78
2022-10-18T18:35:09.097Z,99781.78
2022-10-18T18:37:36.007Z,99810.13
2022-10-18T18:40:02.961Z,99804.94
2022-10-18T18:42:29.948Z,99813.16
2022-10-18T18:44:57.127Z,99804.41
2022-10-18T18:47:24.144Z,99818.91
2022-10-18T18:49:51.684Z,99816.88
2022-10-18T18:52:18.548Z,99806.16
2022-10-18T18:54:45.445Z,99810.00
2022-10-18T18:57:12.284Z,99815.44
2022-10-18T18:59:39.141Z,99824.84
2022-10-18T19:02:06.019Z,99818.88
2022-10-18T19:04:32.996Z,99817.63
2022-10-18T19:06:59.828Z,99808.09
2022-10-18T19:09:27.493Z,99816.25
2022-10-18T19:11:55.435Z,99806.75
2022-10-18T19:14:23.966Z,99815.34
2022-10-18T19:16:55.241Z,99796.00
2022-10-18T19:19:23.112Z,99812.88
2022-10-18T19:21:54.352Z,99807.03
2022-10-18T19:24:21.693Z,99825.72
2022-10-18T19:26:56.407Z,99832.41
2022-10-18T19:29:27.977Z,99845.31
2022-10-18T19:31:56.251Z,99862.63
2022-10-18T19:34:23.892Z,99872.41
2022-10-18T19:36:51.153Z,99880.22
2022-10-18T19:39:22.549Z,99879.09
2022-10-18T19:41:50.923Z,99887.94
2022-10-18T19:44:18.436Z,99885.97
2022-10-18T19:46:45.636Z,99898.53
2022-10-18T19:49:12.609Z,99904.38
2022-10-18T19:51:39.978Z,99902.31
2022-10-18T19:54:06.933Z,99908.50
2022-10-18T19:56:33.942Z,99899.78
2022-10-18T19:59:00.907Z,99904.03
2022-10-18T20:01:28.051Z,99894.19
2022-10-18T20:03:55.176Z,99907.59
2022-10-18T20:06:22.045Z,99913.25
2022-10-18T20:08:48.867Z,99909.22
2022-10-18T20:11:17.858Z,99905.22
2022-10-18T20:13:45.016Z,99908.66
2022-10-18T20:16:12.705Z,99912.91
2022-10-18T20:18:39.619Z,99902.53
2022-10-18T20:21:09.914Z,99891.06
2022-10-18T20:23:37.552Z,99890.16
2022-10-18T20:26:06.443Z,99886.13
2022-10-18T20:28:33.742Z,99890.38
2022-10-18T20:31:13.900Z,99888.00
2022-10-18T20:33:41.066Z,99885.09
2022-10-18T20:36:09.468Z,99889.47
2022-10-18T20:38:37.367Z,99896.34
2022-10-18T20:41:08.548Z,99910.81
2022-10-18T20:43:35.629Z,99887.28
2022-10-18T20:46:02.702Z,99897.97
2022-10-18T20:48:30.444Z,99909.09
2022-10-18T20:50:57.314Z,99911.16
2022-10-18T20:53:24.202Z,99903.59
2022-10-18T20:55:51.033Z,99911.38
2022-10-18T20:58:17.900Z,99904.16
2022-10-18T21:00:44.756Z,99899.66
2022-10-18T21:05:39.481Z,99890.38
2022-10-18T21:08:06.372Z,99877.22
2022-10-18T21:10:33.190Z,99889.31
2022-10-18T21:13:00.016Z,99899.88
2022-10-18T21:15:26.936Z,99915.94
2022-10-18T21:17:53.782Z,99905.56
2022-10-18T21:20:20.640Z,99899.94
2022-10-18T21:22:47.579Z,99902.56
2022-10-18T21:25:14.519Z,99905.19
2022-10-18T21:27:41.674Z,99912.66
2022-10-18T21:30:09.118Z,99903.13
2022-10-18T21:32:36.314Z,99905.41
2022-10-18T21:35:03.258Z,99898.97
2022-10-18T21:37:30.334Z,99901.25
2022-10-18T21:39:57.226Z,99900.34
2022-10-18T21:42:24.116Z,99902.97
2022-10-18T21:44:51.124Z,99911.06
2022-10-18T21:47:17.992Z,99910.63
2022-10-18T21:49:44.960Z,99910.16
2022-10-18T21:52:11.873Z,99903.72
2022-10-18T21:54:38.722Z,99909.44
2022-10-18T21:57:05.539Z,99899.91
2022-10-18T21:59:32.390Z,99899.31
2022-10-18T22:02:01.206Z,99898.03
2022-10-18T22:04:28.110Z,99894.34
2022-10-18T22:06:55.029Z,99878.28
2022-10-18T22:09:22.129Z,99903.16
2022-10-18T22:11:51.390Z,99901.53
2022-10-18T22:14:18.270Z,99902.66
2022-10-18T22:16:45.093Z,99901.53
2022-10-18T22:19:12.035Z,99891.56
2022-10-18T22:21:38.961Z,99893.16
2022-10-18T22:24:07.242Z,99887.50
2022-10-18T22:26:35.994Z,99885.41
2022-10-18T22:29:10.857Z,99886.22
2022-10-18T22:31:39.170Z,99885.28
2022-10-18T22:34:07.970Z,99872.13
2022-10-18T22:36:34.903Z,99889.84
2022-10-18T22:39:01.865Z,99895.69
2022-10-18T22:41:28.684Z,99890.84
2022-10-18T22:43:57.372Z,99891.19
2022-10-18T22:46:26.794Z,99883.28
2022-10-18T22:48:53.740Z,99892.19
2022-10-18T22:51:20.970Z,99890.91
2022-10-18T22:53:47.881Z,99885.94
2022-10-18T22:56:19.105Z,99889.50
2022-10-18T22:58:46.127Z,99886.94
2022-10-18T23:01:15.012Z,99901.47
2022-10-18T23:03:41.973Z,99895.97
2022-10-18T23:06:35.364Z,99899.09
2022-10-18T23:09:07.041Z,99895.84
2022-10-18T23:11:34.152Z,99901.34
2022-10-18T23:14:01.577Z,99897.31
2022-10-18T23:16:29.676Z,99901.22
2022-10-18T23:18:57.249Z,99903.47
2022-10-18T23:21:25.393Z,99894.75
2022-10-18T23:23:52.565Z,99904.94
2022-10-18T23:26:21.063Z,99893.53
2022-10-18T23:28:48.888Z,99904.00
2022-10-18T23:31:21.509Z,99907.06
2022-10-18T23:33:49.346Z,99901.75
2022-10-18T23:36:16.373Z,99908.41
2022-10-18T23:38:43.501Z,99908.78
2022-10-18T23:41:11.086Z,99897.16
2022-10-18T23:43:38.021Z,99903.44
2022-10-18T23:46:04.995Z,99897.81
2022-10-18T23:48:32.097Z,99905.56
2022-10-18T23:50:58.993Z,99906.72
2022-10-18T23:53:25.996Z,99884.59
2022-10-18T23:55:56.699Z,99892.69
2022-10-18T23:58:23.715Z,99891.34
